createdAt,value
2023-02-27T00:00:40.197Z,7.13
2023-02-27T00:03:08.176Z,6.10
2023-02-27T00:05:35.948Z,5.68
2023-02-27T00:08:05.151Z,6.32
2023-02-27T00:10:32.999Z,5.13
2023-02-27T00:13:00.988Z,6.13
2023-02-27T00:15:30.764Z,6.65
2023-02-27T00:17:58.642Z,6.40
2023-02-27T00:20:27.229Z,4.95
2023-02-27T00:22:55.114Z,5.93
2023-02-27T00:25:24.250Z,5.43
2023-02-27T00:27:53.055Z,5.05
2023-02-27T00:30:21.519Z,6.15
2023-02-27T00:32:49.340Z,6.03
2023-02-27T00:35:17.340Z,4.65
2023-02-27T00:37:45.197Z,6.40
2023-02-27T00:40:14.254Z,5.82
2023-02-27T00:42:43.673Z,5.85
2023-02-27T00:45:12.094Z,5.40
2023-02-27T00:47:40.013Z,5.05
2023-02-27T00:50:08.600Z,5.03
2023-02-27T00:52:36.770Z,5.15
2023-02-27T00:55:04.799Z,5.88
2023-02-27T00:57:32.758Z,4.55
2023-02-27T01:00:01.968Z,5.28
2023-02-27T01:02:30.037Z,5.83
2023-02-27T01:04:57.919Z,6.22
2023-02-27T01:07:25.799Z,5.13
2023-02-27T01:09:54.706Z,5.32
2023-02-27T01:12:22.756Z,5.60
2023-02-27T01:14:50.608Z,5.73
2023-02-27T01:17:20.009Z,7.45
2023-02-27T01:19:47.874Z,6.88
2023-02-27T01:22:15.720Z,4.85
2023-02-27T01:24:43.733Z,6.35
2023-02-27T01:27:11.585Z,5.17
2023-02-27T01:29:39.449Z,6.32
2023-02-27T01:32:07.397Z,6.50
2023-02-27T01:34:36.814Z,5.63
2023-02-27T01:37:04.700Z,5.07
2023-02-27T01:39:33.420Z,7.27
2023-02-27T01:42:03.399Z,5.03
2023-02-27T01:44:32.517Z,5.35
2023-02-27T01:47:00.366Z,6.60
2023-02-27T01:49:33.370Z,6.97
2023-02-27T01:52:06.775Z,6.20
2023-02-27T01:54:40.240Z,5.35
2023-02-27T01:57:08.868Z,8.18
2023-02-27T01:59:40.439Z,5.60
2023-02-27T02:02:14.894Z,5.60
2023-02-27T02:04:43.662Z,6.93
2023-02-27T02:07:16.178Z,6.40
2023-02-27T02:09:47.726Z,7.03
2023-02-27T02:12:18.822Z,5.75
2023-02-27T02:14:46.735Z,5.38
2023-02-27T02:17:25.108Z,5.70
2023-02-27T02:20:25.769Z,5.15
2023-02-27T02:23:30.434Z,5.38
2023-02-27T02:26:35.243Z,7.50
2023-02-27T02:29:53.593Z,7.78
2023-02-27T02:32:40.287Z,5.87
2023-02-27T02:35:56.974Z,5.65
2023-02-27T02:38:40.044Z,6.40
2023-02-27T02:41:16.480Z,5.93
2023-02-27T02:43:53.877Z,7.53
2023-02-27T02:46:31.453Z,5.50
2023-02-27T02:49:10.313Z,6.03
2023-02-27T02:51:45.357Z,5.00
2023-02-27T02:54:21.609Z,5.50
2023-02-27T02:56:53.239Z,5.88
2023-02-27T02:59:27.179Z,7.10
2023-02-27T03:02:01.588Z,6.20
2023-02-27T03:04:36.109Z,5.68
2023-02-27T03:07:08.457Z,5.80
2023-02-27T03:09:42.019Z,6.03
2023-02-27T03:12:14.122Z,8.50
2023-02-27T03:14:46.617Z,6.35
2023-02-27T03:17:20.290Z,7.60
2023-02-27T03:19:53.018Z,5.60
2023-02-27T03:22:26.440Z,5.93
2023-02-27T03:24:58.927Z,4.37
2023-02-27T03:27:32.353Z,4.75
2023-02-27T03:30:06.551Z,6.55
2023-02-27T03:32:42.533Z,7.40
2023-02-27T03:35:12.348Z,5.72
2023-02-27T03:37:52.293Z,7.27
2023-02-27T03:40:28.410Z,5.60
2023-02-27T03:43:03.544Z,4.88
2023-02-27T03:45:45.980Z,7.00
2023-02-27T03:48:15.166Z,7.10
2023-02-27T03:50:43.046Z,6.03
2023-02-27T03:53:18.677Z,6.97
2023-02-27T03:55:50.049Z,5.50
2023-02-27T03:58:18.185Z,6.90
2023-02-27T04:00:46.342Z,7.38
2023-02-27T04:03:14.267Z,7.40
2023-02-27T04:05:42.734Z,7.32
2023-02-27T04:08:28.807Z,6.28
2023-02-27T04:11:29.667Z,6.82
2023-02-27T04:14:22.289Z,6.15
2023-02-27T04:17:06.329Z,6.63
2023-02-27T04:19:48.070Z,8.40
2023-02-27T04:22:31.328Z,5.53
2023-02-27T04:25:13.438Z,7.65
2023-02-27T04:27:51.660Z,6.90
2023-02-27T04:30:29.011Z,6.10
2023-02-27T04:33:04.931Z,5.32
2023-02-27T04:35:38.118Z,6.07
2023-02-27T04:38:15.215Z,7.63
2023-02-27T04:40:47.578Z,6.20
2023-02-27T04:43:18.674Z,6.43
2023-02-27T04:45:50.363Z,6.53
2023-02-27T04:48:24.241Z,9.05
2023-02-27T04:50:58.675Z,7.38
2023-02-27T04:53:31.875Z,7.18
2023-02-27T04:56:04.119Z,6.77
2023-02-27T04:58:36.880Z,6.05
2023-02-27T05:01:10.226Z,9.18
2023-02-27T05:03:43.529Z,7.53
2023-02-27T05:06:12.490Z,6.35
2023-02-27T05:08:44.972Z,6.00
2023-02-27T05:11:21.400Z,5.78
2023-02-27T05:13:56.077Z,8.85
2023-02-27T05:16:32.929Z,7.65
2023-02-27T05:19:02.958Z,7.10
2023-02-27T05:21:35.426Z,5.83
2023-02-27T05:24:13.840Z,6.45
2023-02-27T05:27:03.444Z,6.63
2023-02-27T05:29:42.007Z,7.05
2023-02-27T05:32:20.832Z,6.85
2023-02-27T05:34:53.872Z,6.57
2023-02-27T05:37:26.080Z,6.53
2023-02-27T05:39:54.249Z,7.00
2023-02-27T05:42:27.840Z,5.22
2023-02-27T05:45:02.299Z,6.72
2023-02-27T05:47:34.791Z,6.53
2023-02-27T05:50:06.864Z,5.82
2023-02-27T05:52:36.265Z,6.25
2023-02-27T05:55:09.558Z,6.18
2023-02-27T05:57:42.940Z,7.20
2023-02-27T06:00:18.755Z,5.60
2023-02-27T06:02:47.005Z,6.93
2023-02-27T06:05:16.724Z,6.18
2023-02-27T06:07:44.608Z,6.30
2023-02-27T06:10:15.711Z,7.95
2023-02-27T06:12:43.616Z,8.47
2023-02-27T06:15:13.808Z,8.43
2023-02-27T06:17:41.690Z,8.32
2023-02-27T06:20:11.158Z,8.00
2023-02-27T06:22:38.965Z,7.40
2023-02-27T06:25:07.700Z,7.23
2023-02-27T06:27:35.669Z,7.45
2023-02-27T06:30:03.566Z,9.15
2023-02-27T06:32:33.645Z,8.23
2023-02-27T06:35:01.443Z,8.48
2023-02-27T06:37:29.278Z,7.97
2023-02-27T06:39:57.133Z,8.68
2023-02-27T06:42:25.068Z,8.68
2023-02-27T06:44:52.910Z,10.10
2023-02-27T06:47:20.808Z,8.60
2023-02-27T06:49:50.084Z,7.07
2023-02-27T06:52:17.913Z,8.68
2023-02-27T06:54:45.775Z,11.23
2023-02-27T06:57:13.597Z,9.18
2023-02-27T06:59:41.911Z,7.43
2023-02-27T07:02:11.300Z,9.40
2023-02-27T07:04:39.177Z,8.20
2023-02-27T07:07:35.852Z,7.95
2023-02-27T07:09:56.213Z,7.28
2023-02-27T07:12:24.235Z,8.15
2023-02-27T07:14:52.037Z,7.63
2023-02-27T07:17:19.892Z,8.88
2023-02-27T07:19:47.685Z,9.77
2023-02-27T07:22:16.832Z,8.60
2023-02-27T07:24:44.622Z,9.23
2023-02-27T07:27:12.460Z,8.23
2023-02-27T07:29:40.282Z,7.68
2023-02-27T07:32:08.213Z,7.60
2023-02-27T07:34:36.087Z,9.20
2023-02-27T07:37:03.991Z,7.55
2023-02-27T07:39:33.306Z,8.53
2023-02-27T07:42:01.213Z,9.55
2023-02-27T07:44:29.031Z,8.85
2023-02-27T07:46:56.922Z,8.52
2023-02-27T07:49:24.765Z,11.57
2023-02-27T07:51:52.625Z,12.97
2023-02-27T07:54:20.681Z,8.98
2023-02-27T07:56:49.988Z,11.45
2023-02-27T07:59:17.852Z,13.07
2023-02-27T08:01:45.785Z,11.73
2023-02-27T08:04:13.662Z,8.17
2023-02-27T08:06:42.025Z,11.15
2023-02-27T08:09:10.807Z,9.98
2023-02-27T08:11:38.694Z,8.73
2023-02-27T08:14:08.034Z,10.77
2023-02-27T08:16:35.961Z,10.87
2023-02-27T08:19:04.081Z,10.48
2023-02-27T08:21:31.936Z,10.18
2023-02-27T08:23:59.816Z,9.57
2023-02-27T08:26:28.141Z,10.60
2023-02-27T08:28:56.154Z,12.03
2023-02-27T08:31:25.686Z,8.98
2023-02-27T08:34:01.006Z,9.90
2023-02-27T08:36:32.305Z,9.88
2023-02-27T08:39:00.152Z,11.48
2023-02-27T08:41:28.150Z,11.07
2023-02-27T08:43:56.017Z,7.03
2023-02-27T08:46:25.685Z,8.43
2023-02-27T08:48:54.752Z,9.23
2023-02-27T08:51:22.688Z,9.82
2023-02-27T08:53:50.487Z,10.40
2023-02-27T08:56:18.280Z,8.18
2023-02-27T08:58:46.121Z,7.63
2023-02-27T09:01:14.022Z,8.05
2023-02-27T09:03:43.249Z,8.07
2023-02-27T09:06:11.168Z,7.90
2023-02-27T09:08:38.978Z,8.30
2023-02-27T09:11:07.651Z,7.72
2023-02-27T09:13:35.524Z,6.53
2023-02-27T09:16:03.401Z,7.80
2023-02-27T09:18:31.214Z,8.23
2023-02-27T09:21:01.003Z,7.88
2023-02-27T09:23:28.885Z,6.90
2023-02-27T09:25:56.791Z,8.27
2023-02-27T09:28:24.659Z,7.07
2023-02-27T09:30:52.856Z,9.17
2023-02-27T09:33:20.627Z,6.90
2023-02-27T09:35:48.431Z,7.00
2023-02-27T09:38:17.654Z,7.30
2023-02-27T09:40:51.434Z,7.68
2023-02-27T09:43:22.550Z,7.47
2023-02-27T09:45:54.381Z,6.72
2023-02-27T09:48:30.446Z,8.90
2023-02-27T09:50:59.132Z,7.57
2023-02-27T09:53:32.080Z,6.93
2023-02-27T09:56:07.426Z,5.57
2023-02-27T09:58:48.636Z,6.82
2023-02-27T10:01:22.844Z,7.15
2023-02-27T10:04:13.848Z,7.38
2023-02-27T10:06:48.318Z,6.32
2023-02-27T10:09:30.056Z,6.90
2023-02-27T10:12:10.529Z,4.90
2023-02-27T10:14:43.201Z,6.68
2023-02-27T10:17:19.241Z,6.95
2023-02-27T10:19:49.090Z,7.25
2023-02-27T10:22:24.451Z,6.20
2023-02-27T10:24:58.825Z,4.53
2023-02-27T10:27:26.675Z,6.55
2023-02-27T10:29:59.419Z,5.40
2023-02-27T10:32:31.962Z,4.22
2023-02-27T10:35:09.692Z,6.17
2023-02-27T10:37:39.513Z,4.68
2023-02-27T10:40:16.135Z,4.43
2023-02-27T10:42:44.836Z,6.05
2023-02-27T10:45:15.736Z,5.80
2023-02-27T10:47:44.324Z,5.13
2023-02-27T10:50:24.138Z,4.50
2023-02-27T10:52:53.636Z,6.32
2023-02-27T10:55:27.087Z,3.50
2023-02-27T10:57:57.588Z,4.40
2023-02-27T11:00:31.756Z,4.40
2023-02-27T11:03:00.016Z,5.25
2023-02-27T11:05:32.029Z,3.95
2023-02-27T11:08:14.219Z,3.83
2023-02-27T11:10:56.853Z,3.58
2023-02-27T11:13:26.957Z,5.60
2023-02-27T11:16:05.692Z,5.55
2023-02-27T11:18:34.482Z,4.05
2023-02-27T11:21:22.721Z,3.83
2023-02-27T11:23:57.407Z,7.20
2023-02-27T11:26:30.137Z,5.73
2023-02-27T11:29:09.121Z,5.60
2023-02-27T11:31:38.934Z,5.07
2023-02-27T11:34:08.282Z,6.03
2023-02-27T11:36:40.542Z,5.35
2023-02-27T11:39:08.610Z,5.57
2023-02-27T11:41:37.945Z,5.63
2023-02-27T11:44:06.558Z,5.53
2023-02-27T11:46:47.179Z,5.70
2023-02-27T11:49:31.205Z,6.13
2023-02-27T11:52:06.883Z,6.23
2023-02-27T11:54:40.469Z,4.68
2023-02-27T11:57:22.102Z,5.70
2023-02-27T11:59:54.046Z,4.88
2023-02-27T12:02:29.891Z,5.85
2023-02-27T12:05:02.390Z,5.20
2023-02-27T12:07:35.394Z,5.15
2023-02-27T12:10:08.919Z,4.53
2023-02-27T12:12:44.860Z,5.50
2023-02-27T12:15:23.075Z,6.93
2023-02-27T12:17:55.699Z,7.00
2023-02-27T12:20:29.103Z,5.22
2023-02-27T12:22:57.317Z,4.95
2023-02-27T12:25:35.821Z,6.47
2023-02-27T12:28:13.338Z,5.55
2023-02-27T12:30:45.802Z,5.00
2023-02-27T12:33:21.849Z,5.25
2023-02-27T12:35:56.659Z,5.60
2023-02-27T12:38:25.192Z,7.25
2023-02-27T12:41:08.167Z,4.38
2023-02-27T12:43:46.686Z,5.27
2023-02-27T12:46:33.851Z,4.20
2023-02-27T12:49:16.680Z,5.13
2023-02-27T12:51:53.293Z,5.72
2023-02-27T12:54:30.477Z,3.70
2023-02-27T12:57:07.283Z,4.20
2023-02-27T12:59:53.332Z,3.83
2023-02-27T13:02:39.001Z,3.80
2023-02-27T13:05:29.350Z,4.97
2023-02-27T13:08:06.138Z,7.20
2023-02-27T13:10:41.497Z,4.77
2023-02-27T13:13:17.624Z,5.13
2023-02-27T13:15:53.958Z,4.18
2023-02-27T13:18:32.141Z,3.20
2023-02-27T13:21:10.876Z,4.32
2023-02-27T13:23:50.332Z,4.83
2023-02-27T13:26:23.654Z,4.05
2023-02-27T13:28:52.614Z,4.20
2023-02-27T13:31:30.942Z,4.30
2023-02-27T13:34:08.872Z,3.83
2023-02-27T13:36:40.830Z,4.67
2023-02-27T13:39:40.672Z,4.10
2023-02-27T13:42:45.834Z,6.38
2023-02-27T13:45:47.743Z,4.88
2023-02-27T13:48:40.970Z,5.03
2023-02-27T13:51:31.802Z,5.50
2023-02-27T13:54:17.918Z,4.75
2023-02-27T13:56:48.078Z,7.65
2023-02-27T13:59:22.596Z,5.90
2023-02-27T14:01:53.515Z,7.13
2023-02-27T14:04:24.988Z,6.10
2023-02-27T14:06:59.619Z,6.05
2023-02-27T14:09:35.927Z,6.57
2023-02-27T14:12:06.212Z,6.10
2023-02-27T14:14:44.306Z,5.45
2023-02-27T14:17:13.768Z,7.43
2023-02-27T14:19:50.191Z,4.68
2023-02-27T14:23:03.138Z,6.88
2023-02-27T14:25:35.768Z,5.30
2023-02-27T14:28:05.061Z,4.97
2023-02-27T14:30:41.636Z,5.33
2023-02-27T14:33:33.677Z,6.45
2023-02-27T14:36:11.038Z,5.97
2023-02-27T14:38:39.634Z,6.65
2023-02-27T14:41:18.636Z,6.85
2023-02-27T14:43:55.070Z,6.53
2023-02-27T14:46:26.521Z,5.35
2023-02-27T14:48:56.045Z,5.30
2023-02-27T14:51:27.035Z,5.47
2023-02-27T14:54:03.480Z,5.93
2023-02-27T14:56:32.283Z,6.80
2023-02-27T14:59:04.506Z,5.57
2023-02-27T15:01:37.489Z,4.45
2023-02-27T15:04:07.913Z,4.75
2023-02-27T15:06:45.625Z,4.97
2023-02-27T15:09:23.690Z,5.67
2023-02-27T15:12:03.178Z,5.38
2023-02-27T15:14:36.040Z,6.57
2023-02-27T15:17:05.094Z,5.97
2023-02-27T15:19:33.133Z,4.88
2023-02-27T15:22:05.499Z,4.57
2023-02-27T15:24:49.354Z,4.93
2023-02-27T15:27:20.997Z,4.43
2023-02-27T15:29:52.624Z,4.25
2023-02-27T15:32:28.201Z,4.25
2023-02-27T15:34:57.026Z,3.50
2023-02-27T15:37:30.009Z,4.90
2023-02-27T15:39:59.213Z,5.28
2023-02-27T15:42:29.503Z,5.88
2023-02-27T15:44:58.913Z,4.85
2023-02-27T15:47:29.618Z,4.30
2023-02-27T15:50:01.404Z,5.85
2023-02-27T15:52:34.167Z,5.65
2023-02-27T15:55:04.606Z,5.10
2023-02-27T15:57:33.499Z,4.00
2023-02-27T16:00:01.838Z,3.93
2023-02-27T16:02:44.116Z,5.30
2023-02-27T16:05:18.157Z,4.13
2023-02-27T16:07:48.497Z,4.53
2023-02-27T16:10:21.817Z,3.88
2023-02-27T16:12:49.707Z,4.00
2023-02-27T16:15:27.986Z,4.00
2023-02-27T16:18:06.611Z,4.70
2023-02-27T16:20:40.778Z,4.20
2023-02-27T16:23:19.911Z,6.60
2023-02-27T16:26:02.841Z,4.17
2023-02-27T16:28:33.122Z,3.58
2023-02-27T16:31:01.165Z,4.53
2023-02-27T16:33:33.616Z,6.10
2023-02-27T16:36:19.396Z,5.38
2023-02-27T16:38:49.020Z,5.50
2023-02-27T16:41:19.277Z,4.60
2023-02-27T16:43:48.793Z,5.47
2023-02-27T16:46:21.006Z,5.90
2023-02-27T16:48:55.256Z,4.40
2023-02-27T16:51:25.935Z,8.23
2023-02-27T16:53:56.882Z,3.90
2023-02-27T16:56:37.598Z,4.22
2023-02-27T16:59:06.330Z,5.80
2023-02-27T17:01:34.655Z,4.43
2023-02-27T17:04:04.039Z,5.83
2023-02-27T17:06:36.485Z,4.95
2023-02-27T17:09:05.692Z,4.78
2023-02-27T17:11:33.560Z,5.50
2023-02-27T17:14:01.921Z,6.22
2023-02-27T17:16:30.360Z,4.10
2023-02-27T17:18:58.479Z,5.50
2023-02-27T17:21:27.503Z,7.55
2023-02-27T17:23:55.425Z,5.07
2023-02-27T17:26:24.787Z,4.35
2023-02-27T17:28:52.710Z,4.77
2023-02-27T17:31:23.039Z,6.75
2023-02-27T17:33:51.673Z,6.30
2023-02-27T17:36:19.565Z,6.07
2023-02-27T17:38:47.973Z,4.50
2023-02-27T17:41:16.365Z,4.53
2023-02-27T17:43:50.398Z,5.65
2023-02-27T17:46:18.542Z,6.50
2023-02-27T17:48:46.557Z,5.80
2023-02-27T17:51:16.247Z,6.30
2023-02-27T17:53:44.673Z,6.67
2023-02-27T17:56:13.815Z,5.32
2023-02-27T17:58:45.285Z,6.32
2023-02-27T18:01:17.108Z,5.95
2023-02-27T18:03:45.105Z,5.57
2023-02-27T18:06:13.367Z,5.43
2023-02-27T18:08:41.307Z,7.68
2023-02-27T18:11:10.592Z,5.05
2023-02-27T18:13:38.875Z,5.85
2023-02-27T18:16:07.755Z,6.18
2023-02-27T18:18:37.619Z,7.83
2023-02-27T18:21:08.241Z,6.95
2023-02-27T18:23:36.821Z,6.30
2023-02-27T18:26:05.697Z,7.93
2023-02-27T18:28:33.805Z,5.72
2023-02-27T18:31:01.818Z,5.13
2023-02-27T18:33:29.803Z,7.18
2023-02-27T18:35:59.071Z,5.30
2023-02-27T18:38:26.950Z,8.07
2023-02-27T18:40:55.063Z,5.85
2023-02-27T18:43:22.941Z,5.50
2023-02-27T18:45:51.408Z,6.47
2023-02-27T18:48:19.457Z,6.32
2023-02-27T18:50:47.989Z,5.78
2023-02-27T18:53:18.339Z,5.88
2023-02-27T18:55:46.451Z,16.30
2023-02-27T18:58:15.246Z,19.20
2023-02-27T19:00:45.557Z,11.50
2023-02-27T19:03:14.342Z,10.68
2023-02-27T19:05:43.440Z,8.60
2023-02-27T19:08:12.132Z,8.67
2023-02-27T19:10:42.944Z,7.63
2023-02-27T19:13:11.870Z,10.65
2023-02-27T19:15:40.336Z,10.02
2023-02-27T19:18:08.225Z,7.07
2023-02-27T19:20:36.250Z,9.30
2023-02-27T19:23:04.180Z,6.40
2023-02-27T19:25:32.076Z,6.85
2023-02-27T19:28:01.363Z,7.47
2023-02-27T19:30:29.664Z,8.18
2023-02-27T19:32:57.630Z,9.60
2023-02-27T19:35:25.948Z,8.77
2023-02-27T19:37:58.128Z,5.85
2023-02-27T19:40:28.183Z,5.97
2023-02-27T19:42:57.217Z,5.40
2023-02-27T19:45:26.452Z,6.57
2023-02-27T19:47:54.598Z,6.43
2023-02-27T19:50:22.435Z,5.97
2023-02-27T19:52:50.368Z,6.93
2023-02-27T19:55:18.314Z,7.45
2023-02-27T19:57:46.122Z,6.87
2023-02-27T20:00:15.432Z,6.28
2023-02-27T20:02:45.274Z,7.53
2023-02-27T20:05:13.233Z,8.25
2023-02-27T20:07:42.865Z,8.52
2023-02-27T20:10:12.405Z,6.40
2023-02-27T20:12:40.377Z,8.15
2023-02-27T20:15:11.486Z,7.15
2023-02-27T20:17:41.945Z,6.72
2023-02-27T20:20:12.657Z,7.35
2023-02-27T20:22:43.492Z,7.43
2023-02-27T20:25:12.308Z,6.45
2023-02-27T20:27:40.405Z,5.88
2023-02-27T20:30:09.477Z,6.47
2023-02-27T20:32:37.398Z,6.28
2023-02-27T20:35:06.512Z,6.77
2023-02-27T20:37:35.755Z,5.60
2023-02-27T20:40:04.649Z,6.40
2023-02-27T20:42:32.515Z,8.55
2023-02-27T20:45:00.509Z,7.03
2023-02-27T20:47:29.414Z,6.40
2023-02-27T20:49:57.308Z,6.97
2023-02-27T20:52:25.270Z,8.15
2023-02-27T20:54:55.286Z,6.10
2023-02-27T20:57:23.158Z,7.18
2023-02-27T20:59:51.164Z,8.47
2023-02-27T21:02:19.039Z,7.80
2023-02-27T21:04:47.355Z,7.82
2023-02-27T21:07:18.473Z,8.77
2023-02-27T21:09:47.340Z,8.48
2023-02-27T21:12:17.100Z,7.23
2023-02-27T21:14:45.286Z,7.40
2023-02-27T21:17:14.975Z,7.22
2023-02-27T21:19:42.907Z,6.97
2023-02-27T21:22:11.432Z,6.75
2023-02-27T21:24:39.371Z,7.00
2023-02-27T21:27:07.263Z,5.80
2023-02-27T21:29:36.412Z,6.45
2023-02-27T21:32:04.691Z,6.40
2023-02-27T21:34:32.621Z,7.20
2023-02-27T21:37:02.282Z,7.27
2023-02-27T21:39:30.317Z,7.25
2023-02-27T21:41:59.485Z,8.63
2023-02-27T21:44:27.460Z,6.57
2023-02-27T21:46:56.975Z,7.32
2023-02-27T21:49:26.413Z,6.50
2023-02-27T21:51:54.387Z,5.97
2023-02-27T21:54:22.999Z,5.97
2023-02-27T21:56:51.106Z,8.18
2023-02-27T21:59:20.818Z,6.15
2023-02-27T22:01:49.121Z,7.27
2023-02-27T22:04:19.674Z,7.07
2023-02-27T22:06:48.662Z,6.07
2023-02-27T22:09:17.576Z,6.05
2023-02-27T22:11:45.682Z,7.35
2023-02-27T22:14:13.717Z,6.00
2023-02-27T22:16:42.407Z,6.03
2023-02-27T22:19:12.839Z,6.35
2023-02-27T22:21:42.031Z,6.50
2023-02-27T22:24:10.135Z,6.80
2023-02-27T22:26:38.504Z,6.47
2023-02-27T22:29:07.149Z,6.00
2023-02-27T22:31:36.764Z,7.40
2023-02-27T22:34:06.804Z,7.47
2023-02-27T22:36:35.877Z,8.13
2023-02-27T22:39:05.957Z,7.07
2023-02-27T22:41:37.404Z,7.57
2023-02-27T22:44:06.514Z,7.13
2023-02-27T22:46:37.039Z,6.82
2023-02-27T22:49:09.651Z,7.28
2023-02-27T22:51:37.566Z,7.73
2023-02-27T22:54:08.102Z,7.50
2023-02-27T22:56:37.346Z,6.88
2023-02-27T22:59:05.728Z,9.45
2023-02-27T23:01:35.759Z,8.25
2023-02-27T23:04:05.780Z,7.50
2023-02-27T23:06:36.660Z,7.25
2023-02-27T23:09:42.471Z,7.88
2023-02-27T23:12:10.287Z,5.43
2023-02-27T23:14:38.099Z,6.97
2023-02-27T23:17:05.907Z,7.87
2023-02-27T23:19:34.088Z,6.30
2023-02-27T23:22:02.040Z,5.90
2023-02-27T23:24:29.885Z,6.70
2023-02-27T23:26:59.041Z,6.65
2023-02-27T23:29:26.844Z,6.40
2023-02-27T23:31:54.919Z,6.53
2023-02-27T23:34:23.324Z,6.78
2023-02-27T23:36:51.412Z,6.80
2023-02-27T23:39:19.519Z,7.93
2023-02-27T23:41:47.449Z,6.20
2023-02-27T23:44:16.582Z,6.97
2023-02-27T23:46:44.360Z,6.25
2023-02-27T23:49:12.549Z,7.43
2023-02-27T23:51:40.393Z,7.47
2023-02-27T23:54:08.224Z,6.30
2023-02-27T23:56:36.132Z,7.50
2023-02-27T23:59:06.687Z,7.82
